Flight Track Log - Related Links

Times and Time Zones

All times are in EDT time to prevent confusion due to time zone crossing. See the UAL252 flight status page for this flight to view local times or setup timezone preferences in your user account.

Time Position Orientation Groundspeed Altitude Reporting Facility
EDT Latitude Longitude Course Direction KTS MPH feet Rate Location/Type
Tue 08:06:29 PM 29.9619 -95.3458 41° Northeast 143 165 800  Level Houston Center
Tue 08:07:13 PM 29.9475 -95.3717 237° Southwest 198 228 1,800 1,698 Climbing Houston Center
Tue 08:08:15 PM 29.9969 -95.3844 347° North 229 264 3,800 2,049 Climbing Houston Center
Tue 08:09:00 PM 30.3690 -95.0248 35° Northeast  Level FlightAware Approximate
Tue 08:09:16 PM 30.0658 -95.3414 28° Northeast 277 319 6,000  Level Houston Center
Tue 08:10:00 PM 30.4622 -94.9419 30° Northeast  Level FlightAware Approximate
Tue 08:10:16 PM 30.1450 -95.2803 34° Northeast 308 354 10,100  Level Houston Center
Tue 08:11:00 PM 30.5625 -94.8708 41° Northeast  Level FlightAware Approximate
Tue 08:11:20 PM 30.2139 -95.2092 42° Northeast 318 366 12,200  Level Houston Center
Tue 08:12:22 PM 30.2864 -95.1311 43° Northeast 352 405 15,100 2,613 Climbing Houston Center
Tue 08:13:24 PM 30.3597 -95.0539 42° Northeast 356 410 17,600 2,419 Climbing Houston Center
Tue 08:14:26 PM 30.4475 -94.9719 39° Northeast 371 427 20,100 2,177 Climbing Houston Center
Tue 08:15:28 PM 30.5361 -94.9056 33° Northeast 377 434 22,100 1,854 Climbing Houston Center
Tue 08:16:29 PM 30.6269 -94.8356 34° Northeast 390 449 23,900 1,805 Climbing Houston Center
Tue 08:17:31 PM 30.7189 -94.7644 34° Northeast 395 455 25,800 1,645 Climbing Houston Center
Tue 08:18:33 PM 30.8142 -94.6903 34° Northeast 409 471 27,300 1,500 Climbing Houston Center
Tue 08:19:35 PM 30.9303 -94.6011 33° Northeast 419 482 28,900 823 Climbing Houston Center
Tue 08:20:37 PM 31.0275 -94.5250 34° Northeast 424 488 29,000 683 Climbing Houston Center
Tue 08:21:38 PM 31.1242 -94.4497 34° Northeast 422 486 30,300 1,220 Climbing Houston Center
Tue 08:22:40 PM 31.2247 -94.3714 34° Northeast 434 499 31,500 1,065 Climbing Houston Center
Tue 08:23:42 PM 31.3292 -94.2914 33° Northeast 447 514 32,500 1,113 Climbing Houston Center
Tue 08:24:44 PM 31.4364 -94.2081 34° Northeast 460 529 33,800 1,220 Climbing Houston Center
Tue 08:25:45 PM 31.5619 -94.1092 34° Northeast 457 526 35,000 585 Climbing Houston Center
Tue 08:26:47 PM 31.6678 -94.0272 33° Northeast 455 524 35,000  Level Houston Center
Tue 08:27:49 PM 31.7731 -93.9431 34° Northeast 457 526 35,000  Level Houston Center
Tue 08:28:51 PM 31.8650 -93.8561 39° Northeast 454 522 35,000  Level Houston Center
Tue 08:29:52 PM 31.9561 -93.7497 45° Northeast 456 525 35,000  Level Houston Center
Tue 08:30:54 PM 32.0644 -93.6219 45° Northeast 458 527 35,000  Level Houston Center
Tue 08:31:56 PM 32.1542 -93.5161 45° Northeast 457 526 35,000 152 Level Houston Center
Tue 08:32:13 PM 32.1711 -93.4892 53° Northeast 449 517 35,200 857 Climbing Fort Worth Center
Tue 08:33:13 PM 32.2697 -93.3719 45° Northeast 449 517 36,100 1,150 Climbing Fort Worth Center
Tue 08:34:13 PM 32.3481 -93.2797 45° Northeast 449 517 37,500 1,150 Climbing Fort Worth Center
Tue 08:35:13 PM 32.4383 -93.1722 45° Northeast 449 517 38,400 750 Climbing Fort Worth Center
Tue 08:36:13 PM 32.5286 -93.0669 45° Northeast 449 517 39,000 300 Climbing Fort Worth Center
Tue 08:37:13 PM 32.6192 -92.9642 44° Northeast 449 517 39,000  Level Fort Worth Center
Tue 08:38:13 PM 32.7069 -92.8561 46° Northeast 449 517 39,000  Level Fort Worth Center
Tue 08:39:13 PM 32.7950 -92.7503 45° Northeast 449 517 39,000  Level Fort Worth Center
Tue 08:40:13 PM 32.8850 -92.6467 44° Northeast 449 517 39,000 50 Level Fort Worth Center
Tue 08:41:13 PM 32.9706 -92.5406 46° Northeast 449 517 39,100  Climbing Fort Worth Center
Tue 08:42:13 PM 33.0583 -92.4367 45° Northeast 449 517 39,000 -37 Descending Fort Worth Center
Tue 08:43:56 PM 33.1958 -92.2739 45° Northeast 427 491 39,000  Level Memphis Center
Tue 08:44:56 PM 33.2958 -92.1567 44° Northeast 433 498 39,000  Level Memphis Center
Tue 08:45:56 PM 33.3808 -92.0514 46° Northeast 439 505 39,000  Level Memphis Center
Tue 08:46:56 PM 33.4656 -91.9483 45° Northeast 439 505 39,000 50 Level Memphis Center
Tue 08:47:56 PM 33.5589 -91.8306 46° Northeast 446 513 39,100  Climbing Memphis Center
Tue 08:48:56 PM 33.6372 -91.7369 45° Northeast 446 513 39,000 -50 Descending Memphis Center
Tue 08:49:56 PM 33.7133 -91.6333 49° Northeast 430 495 39,000  Level Memphis Center
Tue 08:50:56 PM 33.7936 -91.5294 47° Northeast 430 495 39,000  Level Memphis Center
Tue 08:51:56 PM 33.8803 -91.4231 46° Northeast 425 489 39,000  Level Memphis Center
Tue 08:52:56 PM 33.9731 -91.3114 45° Northeast 420 483 39,000  Level Memphis Center
Tue 08:53:56 PM 34.0592 -91.2072 45° Northeast 427 491 39,000  Level Memphis Center
Tue 08:54:56 PM 34.1414 -91.1025 46° Northeast 422 486 39,000  Level Memphis Center
Tue 08:55:56 PM 34.2233 -90.9978 47° Northeast 422 486 39,000  Level Memphis Center
Tue 08:56:56 PM 34.3114 -90.8903 45° Northeast 432 497 39,000  Level Memphis Center
Tue 08:57:56 PM 34.3933 -90.7825 47° Northeast 427 491 39,000  Level Memphis Center
Tue 08:58:56 PM 34.4792 -90.6772 45° Northeast 427 491 39,000  Level Memphis Center
Tue 08:59:56 PM 34.5669 -90.5664 46° Northeast 427 491 39,000  Level Memphis Center
Tue 09:00:56 PM 34.6506 -90.4581 47° Northeast 432 497 39,000  Level Memphis Center
Tue 09:01:56 PM 34.7258 -90.3622 46° Northeast 432 497 39,000  Level Memphis Center
Tue 09:02:56 PM 34.8111 -90.2558 46° Northeast 432 497 39,000  Level Memphis Center
Tue 09:03:56 PM 34.8986 -90.1444 46° Northeast 439 505 39,000  Level Memphis Center
Tue 09:04:56 PM 34.9861 -90.0353 46° Northeast 444 511 39,000  Level Memphis Center
Tue 09:05:56 PM 35.0711 -89.9031 52° Northeast 449 517 39,000  Level Memphis Center
Tue 09:06:56 PM 35.1394 -89.7731 57° Northeast 449 517 39,000  Level Memphis Center
Tue 09:07:56 PM 35.2097 -89.6481 55° Northeast 449 517 39,000  Level Memphis Center
Tue 09:08:56 PM 35.2778 -89.5228 56° Northeast 443 510 39,000  Level Memphis Center
Tue 09:09:56 PM 35.3458 -89.3975 56° Northeast 443 510 39,000  Level Memphis Center
Tue 09:10:56 PM 35.4156 -89.2769 55° Northeast 443 510 39,000  Level Memphis Center
Tue 09:11:56 PM 35.4750 -89.1639 57° Northeast 443 510 39,000  Level Memphis Center
Tue 09:12:56 PM 35.5469 -89.0403 54° Northeast 443 510 39,000  Level Memphis Center
Tue 09:13:56 PM 35.6142 -88.9167 56° Northeast 443 510 39,000  Level Memphis Center
Tue 09:14:56 PM 35.6794 -88.7903 58° Northeast 443 510 39,000  Level Memphis Center
Tue 09:15:56 PM 35.7467 -88.6689 56° Northeast 437 503 39,000  Level Memphis Center
Tue 09:16:56 PM 35.8136 -88.5419 57° Northeast 437 503 39,000  Level Memphis Center
Tue 09:17:56 PM 35.8828 -88.4200 55° Northeast 437 503 39,000  Level Memphis Center
Tue 09:18:56 PM 35.9517 -88.2981 55° Northeast 437 503 39,000  Level Memphis Center
Tue 09:19:56 PM 36.0183 -88.1706 57° Northeast 442 509 39,000  Level Memphis Center
Tue 09:20:56 PM 36.0850 -88.0531 55° Northeast 437 503 39,000  Level Memphis Center
Tue 09:21:56 PM 36.1536 -87.9278 56° Northeast 436 502 39,000  Level Memphis Center
Tue 09:22:56 PM 36.2197 -87.8050 56° Northeast 431 496 39,000  Level Memphis Center
Tue 09:23:56 PM 36.2919 -87.6689 57° Northeast 431 496 39,000  Level Memphis Center
Tue 09:24:56 PM 36.3581 -87.5431 57° Northeast 431 496 39,000  Level Memphis Center
Tue 09:25:56 PM 36.4258 -87.4167 56° Northeast 431 496 39,000  Level Memphis Center
Tue 09:26:56 PM 36.4917 -87.2931 56° Northeast 431 496 39,000 -50 Level Memphis Center
Tue 09:27:56 PM 36.5575 -87.1692 56° Northeast 431 496 38,900  Descending Memphis Center
Tue 09:28:56 PM 36.6228 -87.0425 57° Northeast 431 496 39,000 50 Climbing Memphis Center
Tue 09:29:56 PM 36.6803 -86.9289 58° Northeast 431 496 39,000  Level Memphis Center
Tue 09:30:56 PM 36.7475 -86.7992 57° Northeast 431 496 39,000 50 Level Memphis Center
Tue 09:31:56 PM 36.8125 -86.6692 58° Northeast 431 496 39,100  Climbing Memphis Center
Tue 09:32:56 PM 36.8664 -86.5294 64° Northeast 444 511 39,000 -50 Descending Memphis Center
Tue 09:33:56 PM 36.8969 -86.3747 76° East 444 511 39,000  Level Memphis Center
Tue 09:34:13 PM 36.9072 -86.3211 77° East 454 522 39,000  Level Indianapolis Center
Tue 09:35:14 PM 36.9372 -86.1667 76° East 451 519 39,000  Level Indianapolis Center
Tue 09:36:16 PM 36.9656 -86.0139 77° East 449 517 39,000  Level Indianapolis Center
Tue 09:37:17 PM 36.9942 -85.8617 77° East 445 512 39,000  Level Indianapolis Center
Tue 09:38:19 PM 37.0233 -85.7081 77° East 449 517 39,000  Level Indianapolis Center
Tue 09:39:20 PM 37.0514 -85.5572 77° East 444 511 39,000  Level Indianapolis Center
Tue 09:40:21 PM 37.0800 -85.4033 77° East 440 506 39,000  Level Indianapolis Center
Tue 09:41:23 PM 37.1064 -85.2533 78° East 441 507 39,000  Level Indianapolis Center
Tue 09:42:24 PM 37.1331 -85.1039 77° East 439 505 39,000  Level Indianapolis Center
Tue 09:43:26 PM 37.1600 -84.9544 77° East 439 505 39,000  Level Indianapolis Center
Tue 09:44:27 PM 37.1864 -84.8031 78° East 442 509 39,000  Level Indianapolis Center
Tue 09:45:28 PM 37.2183 -84.6258 77° East 444 511 39,000  Level Indianapolis Center
Tue 09:46:30 PM 37.2464 -84.4728 77° East 448 516 39,000  Level Indianapolis Center
Tue 09:47:31 PM 37.2725 -84.3206 78° East 445 512 39,000  Level Indianapolis Center
Tue 09:48:33 PM 37.2992 -84.1664 78° East 447 514 39,000  Level Indianapolis Center
Tue 09:49:34 PM 37.3256 -84.0139 78° East 447 514 39,000  Level Indianapolis Center
Tue 09:50:35 PM 37.3522 -83.8592 78° East 452 520 39,000  Level Indianapolis Center
Tue 09:51:36 PM 37.3775 -83.7075 78° East 444 511 39,000  Level Indianapolis Center
Tue 09:52:38 PM 37.4036 -83.5536 78° East 447 514 39,000 -244 Level Indianapolis Center
Tue 09:53:39 PM 37.4294 -83.3964 78° East 452 520 38,500 -738 Descending Indianapolis Center
Tue 09:54:40 PM 37.4558 -83.2389 78° East 457 526 37,500 -732 Descending Indianapolis Center
Tue 09:55:42 PM 37.4856 -83.0536 79° East 461 531 37,000 -244 Descending Indianapolis Center
Tue 09:56:43 PM 37.5106 -82.8986 78° East 450 518 37,000  Level Indianapolis Center
Tue 09:57:44 PM 37.5358 -82.7417 78° East 452 520 37,000  Level Indianapolis Center
Tue 09:58:45 PM 37.5614 -82.5858 78° East 452 520 37,000  Level Indianapolis Center
Tue 09:59:47 PM 37.5856 -82.4289 79° East 453 521 37,000  Level Indianapolis Center
Tue 10:00:48 PM 37.6097 -82.2711 79° East 456 525 37,000  Level Indianapolis Center
Tue 10:01:49 PM 37.6342 -82.1172 79° East 449 517 37,000  Level Indianapolis Center
Tue 10:02:50 PM 37.6578 -81.9606 79° East 452 520 37,000  Level Indianapolis Center
Tue 10:03:52 PM 37.6814 -81.8047 79° East 452 520 37,000  Level Indianapolis Center
Tue 10:04:53 PM 37.7039 -81.6478 80° East 452 520 37,000  Level Indianapolis Center
Tue 10:05:54 PM 37.7289 -81.4833 79° East 455 524 37,000  Level Indianapolis Center
Tue 10:06:55 PM 37.7508 -81.3317 80° East 454 522 37,000  Level Indianapolis Center
Tue 10:07:56 PM 37.7731 -81.1797 79° East 454 522 37,000  Level Indianapolis Center
Tue 10:08:57 PM 37.8222 -81.0072 70° East 446 513 37,000  Level Indianapolis Center
Tue 10:09:59 PM 37.8744 -80.8594 66° East 442 509 37,000  Level Indianapolis Center
Tue 10:11:00 PM 37.9250 -80.7183 66° East 442 509 37,000 49 Level Indianapolis Center
Tue 10:12:01 PM 37.9733 -80.5756 67° East 442 509 37,100  Climbing Indianapolis Center
Tue 10:13:02 PM 38.0233 -80.4242 67° East 443 510 37,000 -49 Descending Indianapolis Center
Tue 10:14:03 PM 38.0708 -80.2897 66° East 438 504 37,000  Level Washington Center
Tue 10:15:01 PM 38.1181 -80.1472 67° East 438 504 37,000 -51 Level Washington Center
Tue 10:16:01 PM 38.1672 -80.0025 67° East 438 504 36,900 -843 Descending Washington Center
Tue 10:17:02 PM 38.2075 -79.8675 69° East 445 512 35,300 -1,525 Descending Washington Center
Tue 10:18:03 PM 38.2564 -79.7247 66° East 445 512 33,800 -1,537 Descending Washington Center
Tue 10:19:03 PM 38.3008 -79.5792 69° East 445 512 32,200 -1,322 Descending Washington Center
Tue 10:20:01 PM 38.3497 -79.4281 68° East 445 512 31,200 -1,119 Descending Washington Center
Tue 10:21:01 PM 38.4008 -79.2639 68° East 445 512 30,000 -1,587 Descending Washington Center
Tue 10:22:02 PM 38.4492 -79.1125 68° East 450 518 28,000 -1,537 Descending Washington Center
Tue 10:23:02 PM 38.4869 -78.9578 73° East 450 518 26,900 -1,412 Descending Washington Center
Tue 10:24:01 PM 38.5094 -78.8153 79° East 450 518 25,200 -1,750 Descending Washington Center
Tue 10:25:02 PM 38.5322 -78.6625 79° East 445 512 23,400 -1,835 Descending Washington Center
Tue 10:26:02 PM 38.5547 -78.5147 79° East 438 504 21,500 -1,835 Descending Washington Center
Tue 10:27:03 PM 38.5769 -78.3722 79° East 426 490 19,700 -1,765 Descending Washington Center
Tue 10:28:01 PM 38.6028 -78.2350 76° East 403 464 18,000 -1,780 Descending Washington Center
Tue 10:29:01 PM 38.6431 -78.1114 67° East 380 437 16,200 -1,550 Descending Washington Center
Tue 10:30:01 PM 38.6789 -77.9956 68° East 366 421 14,900 -1,250 Descending Washington Center
Tue 10:31:01 PM 38.7142 -77.8878 67° East 347 399 13,700 -1,180 Descending Washington Center
Tue 10:32:03 PM 38.7578 -77.7906 60° Northeast 322 371 12,500 -1,388 Descending Washington Center
Tue 10:33:02 PM 38.8178 -77.7019 49° Northeast 305 351 10,900 -1,436 Descending Washington Center
Tue 10:34:00 PM 38.8667 -77.6000 58° Northeast 308 354 9,700 -1,220 Descending Potomac TRACON
Tue 10:35:00 PM 38.9000 -77.5000 67° East 305 351 8,500 -1,200 Descending Potomac TRACON
Tue 10:36:00 PM 38.8833 -77.4000 102° East 314 361 7,300 -1,250 Descending Potomac TRACON
Tue 10:37:00 PM 38.8500 -77.3000 113° Southeast 312 359 6,000 -650 Descending Potomac TRACON
Tue 10:38:00 PM 38.8000 -77.2000 123° Southeast 313 360 6,000  Level Potomac TRACON
Tue 10:39:00 PM 38.7667 -77.1167 117° Southeast 274 315 6,000 -550 Level Potomac TRACON
Tue 10:40:00 PM 38.7000 -77.1000 169° South 256 295 4,900 -1,300 Descending Potomac TRACON
Tue 10:41:00 PM 38.6833 -77.0333 108° East 216 249 3,400 -1,500 Descending Potomac TRACON

Login

Don't have an account? Register now (free) for customized features, flight alerts, and more!